Online Now
Guests 3
Members   0

24/7 FSX Server
IP: 71.135.74.145
@ PHTO until 1/29/21



Information and tools for flight simulation use only - NOT for real avaition

File Flight Plans Here

PHTO 262353Z 09013G17KT 10SM SCT026 SCT034 26/19 A3001 RMK AO2 SLP162 60004 T02610194 10272 20222 58024PHTO 262331Z 2700/2724 11012KT P6SM VCSH SCT025 SCT030 BKN060 FM270400 24005KT P6SM SCT025 SCT045 FM270900 24005KT P6SM VCSH SCT020 BKN035 FM272100 12010KT P6SM VCSH SCT020 BKN040
Aviation Digital Data Service (ADDS)



Other FSX servers